createdAt,value
2016-10-20T00:00:20.037Z,0
2016-10-20T00:01:01.821Z,0
2016-10-20T00:03:22.593Z,0
2016-10-20T00:04:04.180Z,0
2016-10-20T00:04:45.908Z,0
2016-10-20T00:05:27.638Z,0
2016-10-20T00:06:09.428Z,0
2016-10-20T00:06:51.233Z,0
2016-10-20T00:07:32.845Z,0
2016-10-20T00:08:14.523Z,0
2016-10-20T00:08:56.272Z,0
2016-10-20T00:09:37.933Z,0
2016-10-20T00:11:58.629Z,0
2016-10-20T00:14:13.975Z,0
2016-10-20T00:14:55.572Z,0
2016-10-20T00:15:36.982Z,0
2016-10-20T00:17:57.712Z,0
2016-10-20T00:18:39.293Z,0
2016-10-20T00:19:21.006Z,0
2016-10-20T00:21:21.102Z,0
2016-10-20T00:22:02.826Z,0
2016-10-20T00:24:18.210Z,0
2016-10-20T00:26:38.903Z,0
2016-10-20T00:27:20.562Z,0
2016-10-20T00:29:41.038Z,0
2016-10-20T00:30:22.741Z,0
2016-10-20T00:31:04.397Z,0
2016-10-20T00:31:46.234Z,0
2016-10-20T00:32:28.088Z,0
2016-10-20T00:33:09.823Z,0
2016-10-20T00:33:51.495Z,0
2016-10-20T00:34:33.149Z,0
2016-10-20T00:35:14.881Z,0
2016-10-20T00:35:56.553Z,0
2016-10-20T00:39:45.879Z,0
2016-10-20T00:40:27.581Z,0
2016-10-20T00:41:09.300Z,0
2016-10-20T00:43:09.411Z,0
2016-10-20T00:43:51.116Z,0
2016-10-20T00:44:32.946Z,0
2016-10-20T00:45:14.638Z,0
2016-10-20T00:45:56.392Z,0
2016-10-20T00:46:38.075Z,0
2016-10-20T00:47:19.558Z,0
2016-10-20T00:48:01.127Z,0
2016-10-20T00:48:42.775Z,0
2016-10-20T00:53:08.597Z,0
2016-10-20T00:53:50.328Z,0
2016-10-20T00:54:32.042Z,0
2016-10-20T00:55:13.818Z,0
2016-10-20T00:55:55.517Z,0
2016-10-20T00:56:36.920Z,0
2016-10-20T00:57:17.453Z,0
2016-10-20T00:57:57.986Z,0
2016-10-20T00:58:38.516Z,0
2016-10-20T00:59:19.032Z,0
2016-10-20T00:59:59.546Z,0
2016-10-20T01:00:40.086Z,0
2016-10-20T01:01:20.622Z,0
2016-10-20T01:02:01.144Z,0
2016-10-20T01:02:41.676Z,0
2016-10-20T01:03:22.205Z,0
2016-10-20T01:04:02.737Z,0
2016-10-20T01:04:43.291Z,0
2016-10-20T01:05:23.817Z,0
2016-10-20T01:06:04.399Z,0
2016-10-20T01:06:44.925Z,0
2016-10-20T01:07:25.486Z,0
2016-10-20T01:08:06.008Z,0
2016-10-20T01:08:46.523Z,0
2016-10-20T01:09:27.058Z,0
2016-10-20T01:10:07.589Z,0
2016-10-20T01:10:48.138Z,0
2016-10-20T01:11:28.625Z,0
2016-10-20T01:12:09.174Z,0
2016-10-20T01:12:49.700Z,0
2016-10-20T01:13:30.212Z,0
2016-10-20T01:14:10.771Z,0
2016-10-20T01:14:51.274Z,0
2016-10-20T01:15:31.808Z,0
2016-10-20T01:16:12.346Z,0
2016-10-20T01:16:52.876Z,0
2016-10-20T01:17:33.461Z,0
2016-10-20T01:18:13.983Z,0
2016-10-20T01:18:54.526Z,0
2016-10-20T01:19:35.072Z,0
2016-10-20T01:20:15.582Z,0
2016-10-20T01:20:56.114Z,0
2016-10-20T01:21:36.648Z,0
2016-10-20T01:22:17.176Z,0
2016-10-20T01:22:57.690Z,0
2016-10-20T01:23:38.227Z,0
2016-10-20T01:24:18.763Z,0
2016-10-20T01:24:59.299Z,0
2016-10-20T01:25:39.859Z,0
2016-10-20T01:26:20.375Z,0
2016-10-20T01:27:00.894Z,0
2016-10-20T01:27:41.416Z,0
2016-10-20T01:28:21.954Z,0
2016-10-20T01:29:02.494Z,0
2016-10-20T01:29:43.027Z,0
2016-10-20T01:30:23.530Z,0
2016-10-20T01:31:04.101Z,0
2016-10-20T01:31:44.618Z,0
2016-10-20T01:32:25.147Z,0
2016-10-20T01:33:05.684Z,0
2016-10-20T01:33:46.231Z,0
2016-10-20T01:34:26.766Z,0
2016-10-20T01:35:07.286Z,0
2016-10-20T01:35:47.818Z,0
2016-10-20T01:36:28.367Z,0
2016-10-20T01:37:08.881Z,0
2016-10-20T01:37:49.407Z,0
2016-10-20T01:38:29.920Z,0
2016-10-20T01:39:10.451Z,0
2016-10-20T01:39:51.002Z,0
2016-10-20T01:40:31.562Z,0
2016-10-20T01:41:12.110Z,0
2016-10-20T01:41:52.640Z,0
2016-10-20T01:42:33.158Z,0
2016-10-20T01:43:13.710Z,0
2016-10-20T01:43:54.240Z,0
2016-10-20T01:44:34.777Z,0
2016-10-20T01:45:15.311Z,0
2016-10-20T01:45:55.859Z,0
2016-10-20T01:46:36.387Z,0
2016-10-20T01:47:16.912Z,0
2016-10-20T01:47:57.418Z,0
2016-10-20T01:48:37.957Z,0
2016-10-20T01:49:18.500Z,0
2016-10-20T01:49:59.034Z,0
2016-10-20T01:50:39.575Z,0
2016-10-20T01:51:20.116Z,0
2016-10-20T01:52:00.633Z,0
2016-10-20T01:52:41.165Z,0
2016-10-20T01:53:21.682Z,0
2016-10-20T01:54:02.212Z,0
2016-10-20T01:54:42.734Z,0
2016-10-20T01:55:23.307Z,0
2016-10-20T01:56:03.845Z,0
2016-10-20T01:56:44.379Z,0
2016-10-20T01:57:24.900Z,0
2016-10-20T01:58:05.430Z,0
2016-10-20T01:58:45.962Z,0
2016-10-20T01:59:26.477Z,0
2016-10-20T02:00:07.000Z,0
2016-10-20T02:00:47.548Z,0
2016-10-20T02:01:28.063Z,0
2016-10-20T02:02:08.592Z,0
2016-10-20T02:02:49.133Z,0
2016-10-20T02:03:29.671Z,0
2016-10-20T02:04:10.170Z,0
2016-10-20T02:04:50.715Z,0
2016-10-20T02:05:31.283Z,0
2016-10-20T02:06:11.792Z,0
2016-10-20T02:06:52.306Z,0
2016-10-20T02:07:32.819Z,0
2016-10-20T02:08:13.362Z,0
2016-10-20T02:08:53.880Z,0
2016-10-20T02:09:34.404Z,0
2016-10-20T02:10:14.990Z,0
2016-10-20T02:10:55.516Z,0
2016-10-20T02:11:36.076Z,0
2016-10-20T02:12:16.605Z,0
2016-10-20T02:12:57.128Z,0
2016-10-20T02:13:37.656Z,0
2016-10-20T02:14:18.187Z,0
2016-10-20T02:14:58.708Z,0
2016-10-20T02:15:39.262Z,0
2016-10-20T02:16:19.816Z,0
2016-10-20T02:17:00.346Z,0
2016-10-20T02:17:40.885Z,0
2016-10-20T02:18:21.405Z,0
2016-10-20T02:19:01.918Z,0
2016-10-20T02:19:42.442Z,0
2016-10-20T02:20:22.981Z,0
2016-10-20T02:21:03.505Z,0
2016-10-20T02:21:44.023Z,0
2016-10-20T02:22:24.547Z,0
2016-10-20T02:23:05.111Z,0
2016-10-20T02:23:45.637Z,0
2016-10-20T02:24:26.189Z,0
2016-10-20T02:25:06.745Z,0
2016-10-20T02:25:47.263Z,0
2016-10-20T02:26:27.775Z,0
2016-10-20T02:27:08.399Z,0
2016-10-20T02:27:48.880Z,0
2016-10-20T02:28:29.648Z,0
2016-10-20T02:29:10.139Z,0
2016-10-20T02:29:50.671Z,0
2016-10-20T02:30:31.348Z,0
2016-10-20T02:31:11.866Z,0
2016-10-20T02:31:52.484Z,0
2016-10-20T02:32:33.002Z,0
2016-10-20T02:33:13.518Z,0
2016-10-20T02:33:54.066Z,0
2016-10-20T02:34:34.587Z,0
2016-10-20T02:35:15.116Z,0
2016-10-20T02:35:55.633Z,0
2016-10-20T02:36:36.167Z,0
2016-10-20T02:37:16.727Z,0
2016-10-20T02:37:57.377Z,0
2016-10-20T02:38:37.851Z,0
2016-10-20T02:39:18.347Z,0
2016-10-20T02:39:58.896Z,0
2016-10-20T02:40:39.388Z,0
2016-10-20T02:41:20.843Z,0
2016-10-20T02:42:01.360Z,0
2016-10-20T02:42:41.878Z,0
2016-10-20T02:43:22.401Z,0
2016-10-20T02:44:02.926Z,0
2016-10-20T02:44:43.508Z,0
2016-10-20T02:45:24.041Z,0
2016-10-20T02:46:04.579Z,0
2016-10-20T02:46:45.100Z,0
2016-10-20T02:47:25.629Z,0
2016-10-20T02:48:06.155Z,0
2016-10-20T02:48:46.726Z,0
2016-10-20T02:49:27.264Z,0
2016-10-20T02:50:07.773Z,0
2016-10-20T02:50:48.309Z,0
2016-10-20T02:51:28.836Z,0
2016-10-20T02:52:09.360Z,0
2016-10-20T02:52:49.901Z,0
2016-10-20T02:53:30.420Z,0
2016-10-20T02:54:10.961Z,0
2016-10-20T02:54:51.476Z,0
2016-10-20T02:55:32.009Z,0
2016-10-20T02:56:12.553Z,0
2016-10-20T02:56:53.082Z,0
2016-10-20T02:57:33.720Z,0
2016-10-20T02:58:14.201Z,0
2016-10-20T02:58:54.745Z,0
2016-10-20T02:59:35.209Z,0
2016-10-20T03:00:15.683Z,0
2016-10-20T03:00:56.208Z,0
2016-10-20T03:01:36.730Z,0
2016-10-20T03:02:17.223Z,0
2016-10-20T03:02:57.726Z,0
2016-10-20T03:03:38.271Z,0
2016-10-20T03:04:18.767Z,0
2016-10-20T03:04:59.276Z,0
2016-10-20T03:05:39.794Z,0
2016-10-20T03:06:20.271Z,0
2016-10-20T03:07:00.817Z,0
2016-10-20T03:07:41.337Z,0
2016-10-20T03:08:21.867Z,0
2016-10-20T03:09:02.375Z,0
2016-10-20T03:09:42.862Z,0
2016-10-20T03:10:23.367Z,0
2016-10-20T03:11:03.991Z,0
2016-10-20T03:11:44.524Z,0
2016-10-20T03:12:25.072Z,0
2016-10-20T03:13:05.576Z,0
2016-10-20T03:13:46.112Z,0
2016-10-20T03:14:26.614Z,0
2016-10-20T03:15:07.165Z,0
2016-10-20T03:15:47.670Z,0
2016-10-20T03:16:28.224Z,0
2016-10-20T03:18:42.975Z,0
2016-10-20T03:19:23.129Z,0
2016-10-20T03:20:03.631Z,0
2016-10-20T03:20:44.227Z,0
2016-10-20T03:21:24.733Z,0
2016-10-20T03:22:05.241Z,0
2016-10-20T03:22:45.763Z,0
2016-10-20T03:23:26.288Z,0
2016-10-20T03:24:06.808Z,0
2016-10-20T03:24:47.336Z,0
2016-10-20T03:25:27.898Z,0
2016-10-20T03:26:08.392Z,0
2016-10-20T03:26:48.909Z,0
2016-10-20T03:27:29.439Z,0
2016-10-20T03:28:09.942Z,0
2016-10-20T03:28:50.459Z,0
2016-10-20T03:29:30.983Z,0
2016-10-20T03:30:11.503Z,0
2016-10-20T03:30:52.010Z,0
2016-10-20T03:31:32.534Z,0
2016-10-20T03:32:13.097Z,0
2016-10-20T03:32:53.627Z,0
2016-10-20T03:33:34.140Z,0
2016-10-20T03:34:14.662Z,0
2016-10-20T03:34:55.187Z,0
2016-10-20T03:35:35.706Z,0
2016-10-20T03:36:16.234Z,0
2016-10-20T03:36:56.761Z,0
2016-10-20T03:37:37.280Z,0
2016-10-20T03:38:17.784Z,0
2016-10-20T03:38:58.317Z,0
2016-10-20T03:39:38.840Z,0
2016-10-20T03:40:19.380Z,0
2016-10-20T03:40:59.887Z,0
2016-10-20T03:41:40.409Z,0
2016-10-20T03:42:20.937Z,0
2016-10-20T03:43:01.442Z,0
2016-10-20T03:43:41.962Z,0
2016-10-20T03:44:22.486Z,0
2016-10-20T03:45:02.996Z,0
2016-10-20T03:45:43.532Z,0
2016-10-20T03:46:24.036Z,0
2016-10-20T03:47:04.541Z,0
2016-10-20T03:47:45.063Z,0
2016-10-20T03:48:25.589Z,0
2016-10-20T03:49:06.103Z,0
2016-10-20T03:49:46.631Z,0
2016-10-20T03:50:27.164Z,0
2016-10-20T03:51:07.688Z,0
2016-10-20T03:51:48.193Z,0
2016-10-20T03:52:28.707Z,0
2016-10-20T03:53:09.252Z,0
2016-10-20T03:53:49.788Z,0
2016-10-20T03:54:30.305Z,0
2016-10-20T03:55:10.825Z,0
2016-10-20T03:55:51.364Z,0
2016-10-20T03:56:31.888Z,0
2016-10-20T03:57:12.390Z,0
2016-10-20T03:57:52.924Z,0
2016-10-20T03:58:33.450Z,0
2016-10-20T03:59:13.950Z,0
2016-10-20T03:59:54.464Z,0
2016-10-20T04:00:34.985Z,0
2016-10-20T04:01:15.489Z,0
2016-10-20T04:01:56.026Z,0
2016-10-20T04:02:36.559Z,0
2016-10-20T04:03:17.099Z,0
2016-10-20T04:03:57.592Z,0
2016-10-20T04:04:38.147Z,0
2016-10-20T04:05:18.678Z,0
2016-10-20T04:05:59.216Z,0
2016-10-20T04:06:39.745Z,0
2016-10-20T04:07:20.254Z,0
2016-10-20T04:08:00.795Z,0
2016-10-20T04:08:41.349Z,0
2016-10-20T04:09:21.838Z,0
2016-10-20T04:10:02.366Z,0
2016-10-20T04:10:42.900Z,0
2016-10-20T04:11:23.415Z,0
2016-10-20T04:12:03.961Z,0
2016-10-20T04:12:44.476Z,0
2016-10-20T04:13:24.989Z,0
2016-10-20T04:14:05.524Z,0
2016-10-20T04:14:46.052Z,0
2016-10-20T04:15:26.558Z,0
2016-10-20T04:16:07.083Z,0
2016-10-20T04:16:47.623Z,0
2016-10-20T04:17:28.161Z,0
2016-10-20T04:18:08.687Z,0
2016-10-20T04:18:49.213Z,0
2016-10-20T04:19:29.735Z,0
2016-10-20T04:20:10.277Z,0
2016-10-20T04:20:50.799Z,0
2016-10-20T04:21:31.339Z,0
2016-10-20T04:22:11.863Z,0
2016-10-20T04:22:52.389Z,0
2016-10-20T04:23:32.905Z,0
2016-10-20T04:24:13.431Z,0
2016-10-20T04:24:53.945Z,0
2016-10-20T04:25:34.444Z,0
2016-10-20T04:26:14.970Z,0
2016-10-20T04:26:55.491Z,0
2016-10-20T04:27:36.001Z,0
2016-10-20T04:28:16.519Z,0
2016-10-20T04:28:57.030Z,0
2016-10-20T04:29:37.562Z,0
2016-10-20T04:30:18.062Z,0
2016-10-20T04:30:58.588Z,0
2016-10-20T04:31:39.126Z,0
2016-10-20T04:32:19.684Z,0
2016-10-20T04:33:00.208Z,0
2016-10-20T04:33:40.739Z,0
2016-10-20T04:34:21.267Z,0
2016-10-20T04:35:01.764Z,0
2016-10-20T04:35:42.294Z,0
2016-10-20T04:36:22.801Z,0
2016-10-20T04:37:03.327Z,0
2016-10-20T04:37:43.842Z,0
2016-10-20T04:38:24.324Z,0
2016-10-20T04:39:04.860Z,0
2016-10-20T04:39:45.363Z,0
2016-10-20T04:40:25.890Z,0
2016-10-20T04:41:06.417Z,0
2016-10-20T04:41:46.950Z,0
2016-10-20T04:42:27.462Z,0
2016-10-20T04:43:07.987Z,0
2016-10-20T04:43:48.506Z,0
2016-10-20T04:44:29.024Z,0
2016-10-20T04:45:09.562Z,0
2016-10-20T04:45:50.067Z,0
2016-10-20T04:46:30.602Z,0
2016-10-20T04:47:11.118Z,0
2016-10-20T04:47:51.642Z,0
2016-10-20T04:48:32.181Z,0
2016-10-20T04:49:12.717Z,0
2016-10-20T04:49:53.246Z,0
2016-10-20T04:50:33.759Z,0
2016-10-20T04:51:14.290Z,0
2016-10-20T04:51:54.838Z,0
2016-10-20T04:52:35.363Z,0
2016-10-20T04:53:15.899Z,0
2016-10-20T04:53:56.413Z,0
2016-10-20T04:54:36.942Z,0
2016-10-20T04:55:17.478Z,0
2016-10-20T04:55:58.019Z,0
2016-10-20T04:56:38.505Z,0
2016-10-20T04:57:19.025Z,0
2016-10-20T04:57:59.570Z,0
2016-10-20T04:58:40.079Z,0
2016-10-20T04:59:20.601Z,0
2016-10-20T05:00:01.133Z,0
2016-10-20T05:00:41.649Z,0
2016-10-20T05:01:22.174Z,0
2016-10-20T05:02:02.703Z,0
2016-10-20T05:02:43.201Z,0
2016-10-20T05:03:23.719Z,0
2016-10-20T05:04:04.213Z,0
2016-10-20T05:04:44.714Z,0
2016-10-20T05:05:25.242Z,0
2016-10-20T05:06:05.765Z,0
2016-10-20T05:06:46.313Z,0
2016-10-20T05:07:26.839Z,0
2016-10-20T05:08:07.351Z,0
2016-10-20T05:08:47.874Z,0
2016-10-20T05:09:28.375Z,0
2016-10-20T05:10:08.902Z,0
2016-10-20T05:10:49.424Z,0
2016-10-20T05:11:29.952Z,0
2016-10-20T05:12:10.467Z,0
2016-10-20T05:12:50.986Z,0
2016-10-20T05:13:31.488Z,0
2016-10-20T05:14:12.012Z,0
2016-10-20T05:14:52.539Z,0
2016-10-20T05:15:33.050Z,0
2016-10-20T05:16:13.553Z,0
2016-10-20T05:16:54.066Z,0
2016-10-20T05:17:34.576Z,0
2016-10-20T05:18:15.114Z,0
2016-10-20T05:18:55.628Z,0
2016-10-20T05:19:36.126Z,0
2016-10-20T05:20:16.654Z,0
2016-10-20T05:20:57.158Z,0
2016-10-20T05:21:37.683Z,0
2016-10-20T05:22:18.207Z,0
2016-10-20T05:22:58.722Z,0
2016-10-20T05:23:39.250Z,0
2016-10-20T05:24:19.763Z,0
2016-10-20T05:25:00.293Z,0
2016-10-20T05:25:40.839Z,0
2016-10-20T05:26:21.367Z,0
2016-10-20T05:27:01.877Z,0
2016-10-20T05:27:42.392Z,0
2016-10-20T05:28:22.925Z,0
2016-10-20T05:29:03.465Z,0
2016-10-20T05:29:43.978Z,0
2016-10-20T05:30:24.499Z,0
2016-10-20T05:31:05.031Z,0
2016-10-20T05:31:45.550Z,0
2016-10-20T05:32:26.054Z,0
2016-10-20T05:33:06.576Z,0
2016-10-20T05:33:47.105Z,0
2016-10-20T05:34:27.624Z,0
2016-10-20T05:35:08.143Z,0
2016-10-20T05:35:48.661Z,0
2016-10-20T05:36:29.207Z,0
2016-10-20T05:37:09.713Z,0
2016-10-20T05:37:50.230Z,0
2016-10-20T05:38:30.710Z,0
2016-10-20T05:39:11.214Z,0
2016-10-20T05:39:51.711Z,0
2016-10-20T05:40:32.210Z,0
2016-10-20T05:41:12.717Z,4
2016-10-20T05:41:53.247Z,4
2016-10-20T05:42:33.728Z,4
2016-10-20T05:43:14.226Z,0
2016-10-20T05:43:54.729Z,0
2016-10-20T05:44:35.242Z,4
2016-10-20T05:45:15.749Z,4
2016-10-20T05:45:56.258Z,4
2016-10-20T05:46:36.784Z,8
2016-10-20T05:47:17.336Z,4
2016-10-20T05:47:57.830Z,4
2016-10-20T05:48:38.337Z,4
2016-10-20T05:49:18.854Z,8
2016-10-20T05:49:59.358Z,4
2016-10-20T05:50:39.874Z,8
2016-10-20T05:51:20.398Z,8
2016-10-20T05:52:00.926Z,12
2016-10-20T05:52:41.422Z,8
2016-10-20T05:53:21.939Z,12
2016-10-20T05:54:02.447Z,12
2016-10-20T05:54:42.991Z,12
2016-10-20T05:55:23.461Z,16
2016-10-20T05:56:03.969Z,20
2016-10-20T05:56:44.483Z,20
2016-10-20T05:57:25.009Z,20
2016-10-20T05:58:05.537Z,24
2016-10-20T05:58:46.028Z,28
2016-10-20T05:59:26.533Z,28
2016-10-20T06:00:07.066Z,32
2016-10-20T06:00:47.552Z,36
2016-10-20T06:01:28.068Z,40
2016-10-20T06:02:08.546Z,40
2016-10-20T06:02:49.051Z,44
2016-10-20T06:03:29.542Z,48
2016-10-20T06:04:10.065Z,48
2016-10-20T06:04:50.585Z,56
2016-10-20T06:05:31.116Z,60
2016-10-20T06:06:11.614Z,64
2016-10-20T06:06:52.110Z,72
2016-10-20T06:07:32.637Z,72
2016-10-20T06:08:13.105Z,76
2016-10-20T06:08:53.599Z,76
2016-10-20T06:09:34.105Z,84
2016-10-20T06:10:14.612Z,96
2016-10-20T06:10:55.088Z,100
2016-10-20T06:11:35.635Z,104
2016-10-20T06:12:16.104Z,112
2016-10-20T06:12:56.578Z,116
2016-10-20T06:13:37.067Z,124
2016-10-20T06:14:17.599Z,120
2016-10-20T06:14:58.089Z,116
2016-10-20T06:15:38.573Z,116
2016-10-20T06:16:19.067Z,112
2016-10-20T06:16:59.560Z,108
2016-10-20T06:17:40.080Z,108
2016-10-20T06:18:20.571Z,108
2016-10-20T06:19:01.087Z,108
2016-10-20T06:19:41.625Z,112
2016-10-20T06:20:22.113Z,112
2016-10-20T06:21:02.639Z,120
2016-10-20T06:21:43.153Z,144
2016-10-20T06:22:23.679Z,168
2016-10-20T06:23:04.176Z,184
2016-10-20T06:23:44.777Z,200
2016-10-20T06:24:25.340Z,216
2016-10-20T06:25:05.850Z,252
2016-10-20T06:25:46.400Z,272
2016-10-20T06:26:26.923Z,272
2016-10-20T06:27:07.433Z,276
2016-10-20T06:27:47.953Z,268
2016-10-20T06:28:28.471Z,252
2016-10-20T06:29:08.979Z,232
2016-10-20T06:29:49.474Z,216
2016-10-20T06:30:29.976Z,216
2016-10-20T06:31:10.481Z,220
2016-10-20T06:31:51.005Z,228
2016-10-20T06:32:31.501Z,240
2016-10-20T06:33:12.002Z,256
2016-10-20T06:33:52.578Z,268
2016-10-20T06:34:33.079Z,268
2016-10-20T06:35:13.595Z,272
2016-10-20T06:35:54.104Z,272
2016-10-20T06:36:34.623Z,280
2016-10-20T06:37:15.134Z,300
2016-10-20T06:37:55.645Z,304
2016-10-20T06:38:36.150Z,316
2016-10-20T06:39:16.680Z,348
2016-10-20T06:39:57.213Z,384
2016-10-20T06:40:37.710Z,416
2016-10-20T06:41:18.237Z,460
2016-10-20T06:41:58.748Z,520
2016-10-20T06:42:39.260Z,548
2016-10-20T06:43:19.777Z,552
2016-10-20T06:44:00.274Z,580
2016-10-20T06:44:40.787Z,632
2016-10-20T06:45:21.297Z,668
2016-10-20T06:46:01.820Z,696
2016-10-20T06:46:42.338Z,724
2016-10-20T06:47:22.847Z,768
2016-10-20T06:48:03.341Z,812
2016-10-20T06:48:43.858Z,840
2016-10-20T06:49:24.350Z,884
2016-10-20T06:50:04.868Z,936
2016-10-20T06:50:45.412Z,972
2016-10-20T06:51:25.951Z,976
2016-10-20T06:52:06.451Z,948
2016-10-20T06:52:46.962Z,936
2016-10-20T06:53:27.480Z,928
2016-10-20T06:54:07.994Z,960
2016-10-20T06:54:48.520Z,992
2016-10-20T06:55:29.016Z,1012
2016-10-20T06:56:09.581Z,968
2016-10-20T07:03:46.062Z,1140
2016-10-20T07:04:34.062Z,1140
2016-10-20T07:05:19.488Z,1156
2016-10-20T07:08:06.358Z,1160
2016-10-20T07:10:33.905Z,944
2016-10-20T07:13:00.435Z,932
2016-10-20T07:15:05.042Z,836
2016-10-20T07:17:21.393Z,692
2016-10-20T07:23:14.496Z,656
2016-10-20T07:24:02.476Z,632
2016-10-20T07:24:48.552Z,664
2016-10-20T07:25:34.610Z,708
2016-10-20T07:28:14.664Z,784
2016-10-20T07:28:58.914Z,852
2016-10-20T07:29:43.031Z,916
2016-10-20T07:32:28.803Z,1232
2016-10-20T07:33:16.286Z,1332
2016-10-20T07:33:56.656Z,1448
2016-10-20T07:34:42.269Z,1508
2016-10-20T07:40:59.689Z,1648
2016-10-20T07:41:47.264Z,1672
2016-10-20T07:42:30.526Z,1708
2016-10-20T07:43:14.387Z,1536
2016-10-20T07:47:41.365Z,1432
2016-10-20T07:48:28.880Z,1912
2016-10-20T07:49:15.862Z,1964
2016-10-20T07:49:57.943Z,2020
2016-10-20T07:52:44.460Z,1824
2016-10-20T07:53:32.369Z,1700
2016-10-20T07:54:15.769Z,1548
2016-10-20T07:57:00.175Z,1564
2016-10-20T08:01:29.064Z,1600
2016-10-20T08:04:04.587Z,1668
2016-10-20T08:08:29.232Z,1752
2016-10-20T08:11:05.565Z,1568
2016-10-20T08:13:08.753Z,2020
2016-10-20T08:13:53.432Z,2012
2016-10-20T08:16:12.143Z,1920
2016-10-20T08:16:53.213Z,2148
2016-10-20T08:19:32.031Z,3436
2016-10-20T08:20:16.445Z,3048
2016-10-20T08:20:58.694Z,2732
2016-10-20T08:21:39.223Z,2592
2016-10-20T08:22:19.734Z,2548
2016-10-20T08:23:00.242Z,2156
2016-10-20T08:23:41.104Z,2064
2016-10-20T08:24:21.502Z,2512
2016-10-20T08:25:02.075Z,2740
2016-10-20T08:25:42.524Z,2592
2016-10-20T08:26:23.050Z,2368
2016-10-20T08:27:03.567Z,2224
2016-10-20T08:27:44.249Z,2400
2016-10-20T08:28:24.779Z,2296
2016-10-20T08:29:05.297Z,2200
2016-10-20T08:29:45.800Z,2340
2016-10-20T08:30:26.302Z,2252
2016-10-20T08:31:06.834Z,1852
2016-10-20T08:31:47.355Z,1768
2016-10-20T08:32:27.867Z,1664
2016-10-20T08:33:08.374Z,1624
2016-10-20T08:33:48.912Z,1640
2016-10-20T08:34:29.443Z,1748
2016-10-20T08:35:09.973Z,2124
2016-10-20T08:35:50.493Z,2460
2016-10-20T08:36:31.013Z,2660
2016-10-20T08:37:11.570Z,2688
2016-10-20T08:37:52.105Z,2664
2016-10-20T08:38:32.643Z,2848
2016-10-20T08:39:13.152Z,3208
2016-10-20T08:39:53.679Z,3432
2016-10-20T08:40:34.196Z,3796
2016-10-20T08:41:14.742Z,3700
2016-10-20T08:41:55.250Z,3380
2016-10-20T08:42:35.787Z,3672
2016-10-20T08:43:16.318Z,3924
2016-10-20T08:43:56.838Z,4028
2016-10-20T08:44:37.345Z,4012
2016-10-20T08:45:17.882Z,4084
2016-10-20T08:45:58.427Z,4344
2016-10-20T08:46:38.953Z,4700
2016-10-20T08:47:19.468Z,4732
2016-10-20T08:47:59.993Z,4648
2016-10-20T08:48:40.519Z,4500
2016-10-20T08:49:21.064Z,4244
2016-10-20T08:50:01.600Z,4040
2016-10-20T08:50:42.112Z,3816
2016-10-20T08:51:22.650Z,3692
2016-10-20T08:52:03.176Z,3440
2016-10-20T08:52:43.698Z,3352
2016-10-20T08:53:24.207Z,3524
2016-10-20T08:54:04.727Z,3668
2016-10-20T08:54:45.271Z,3760
2016-10-20T08:55:25.748Z,3820
2016-10-20T08:56:06.277Z,3844
2016-10-20T08:56:46.798Z,3600
2016-10-20T08:57:27.303Z,3320
2016-10-20T08:58:07.827Z,3164
2016-10-20T08:58:48.362Z,3152
2016-10-20T08:59:28.905Z,3160
2016-10-20T09:00:09.409Z,3084
2016-10-20T09:00:49.916Z,3032
2016-10-20T09:01:30.432Z,3052
2016-10-20T09:02:10.949Z,3224
2016-10-20T09:02:51.474Z,3300
2016-10-20T09:03:32.002Z,3316
2016-10-20T09:04:12.504Z,3320
2016-10-20T09:04:53.029Z,3608
2016-10-20T09:05:33.562Z,4152
2016-10-20T09:06:14.060Z,4520
2016-10-20T09:06:54.581Z,4860
2016-10-20T09:07:35.075Z,5048
2016-10-20T09:08:15.602Z,5252
2016-10-20T09:08:56.114Z,5160
2016-10-20T09:09:36.654Z,5220
2016-10-20T09:10:17.166Z,5444
2016-10-20T09:10:57.694Z,5656
2016-10-20T09:11:38.212Z,5864
2016-10-20T09:12:18.760Z,5844
2016-10-20T09:12:59.247Z,5576
2016-10-20T09:13:39.767Z,4964
2016-10-20T09:14:20.274Z,4500
2016-10-20T09:15:00.781Z,4472
2016-10-20T09:15:41.313Z,4584
2016-10-20T09:16:21.816Z,4640
2016-10-20T09:17:02.353Z,4820
2016-10-20T09:17:42.874Z,4728
2016-10-20T09:18:23.403Z,4468
2016-10-20T09:19:03.911Z,4232
2016-10-20T09:19:44.450Z,3880
2016-10-20T09:20:24.927Z,3472
2016-10-20T09:21:05.431Z,3064
2016-10-20T09:21:45.960Z,2896
2016-10-20T09:22:26.483Z,3192
2016-10-20T09:23:06.986Z,3568
2016-10-20T09:23:47.502Z,3496
2016-10-20T09:24:27.991Z,3332
2016-10-20T09:25:08.517Z,3176
2016-10-20T09:25:49.032Z,2948
2016-10-20T09:26:29.538Z,3004
2016-10-20T09:27:10.066Z,3332
2016-10-20T09:27:50.581Z,3628
2016-10-20T09:28:31.100Z,3996
2016-10-20T09:29:11.620Z,3840
2016-10-20T09:29:52.135Z,3616
2016-10-20T09:30:32.908Z,3636
2016-10-20T09:31:13.528Z,3840
2016-10-20T09:31:53.959Z,4012
2016-10-20T09:32:34.486Z,4104
2016-10-20T09:33:15.075Z,3996
2016-10-20T09:33:55.624Z,4620
2016-10-20T09:34:36.115Z,6432
2016-10-20T09:35:16.620Z,7592
2016-10-20T09:35:57.132Z,8432
2016-10-20T09:36:37.671Z,8864
2016-10-20T09:37:18.196Z,8748
2016-10-20T09:37:58.723Z,8252
2016-10-20T09:38:39.235Z,7272
2016-10-20T09:39:19.754Z,6284
2016-10-20T09:40:00.277Z,5580
2016-10-20T09:40:41.192Z,5360
2016-10-20T09:41:21.834Z,4736
2016-10-20T09:42:02.310Z,4084
2016-10-20T09:42:42.860Z,3568
2016-10-20T09:43:23.421Z,3212
2016-10-20T09:44:03.988Z,2944
2016-10-20T09:44:44.559Z,2944
2016-10-20T09:45:25.161Z,2876
2016-10-20T09:46:05.677Z,2564
2016-10-20T09:46:46.169Z,2376
2016-10-20T09:47:26.707Z,2328
2016-10-20T09:48:07.226Z,2180
2016-10-20T09:48:47.707Z,2076
2016-10-20T09:49:28.237Z,2000
2016-10-20T09:50:08.764Z,1924
2016-10-20T09:50:49.288Z,1856
2016-10-20T09:51:29.809Z,1868
2016-10-20T09:52:10.381Z,1848
2016-10-20T09:52:50.923Z,1824
2016-10-20T09:53:31.431Z,1736
2016-10-20T09:54:11.904Z,1656
2016-10-20T09:54:52.415Z,1620
2016-10-20T09:55:33.079Z,1560
2016-10-20T09:56:13.636Z,1432
2016-10-20T09:56:54.305Z,1364
2016-10-20T09:57:34.885Z,1308
2016-10-20T09:58:15.433Z,1300
2016-10-20T09:58:55.902Z,1288
2016-10-20T09:59:36.487Z,1236
2016-10-20T10:00:17.008Z,1176
2016-10-20T10:00:57.564Z,1144
2016-10-20T10:01:38.623Z,1136
2016-10-20T10:02:19.052Z,1140
2016-10-20T10:02:59.614Z,1200
2016-10-20T10:03:40.102Z,1304
2016-10-20T10:04:20.606Z,1416
2016-10-20T10:05:01.214Z,1456
2016-10-20T10:05:41.771Z,1492
2016-10-20T10:06:22.292Z,1428
2016-10-20T10:07:02.828Z,1420
2016-10-20T10:07:43.331Z,1380
2016-10-20T10:08:24.020Z,1280
2016-10-20T10:09:04.580Z,1288
2016-10-20T10:09:45.438Z,1360
2016-10-20T10:10:25.943Z,1364
2016-10-20T10:11:06.446Z,1372
2016-10-20T10:11:46.982Z,1340
2016-10-20T10:12:27.449Z,1224
2016-10-20T10:13:07.996Z,1192
2016-10-20T10:13:48.487Z,1092
2016-10-20T10:14:28.970Z,1024
2016-10-20T10:15:09.522Z,1164
2016-10-20T10:15:50.096Z,1376
2016-10-20T10:16:30.557Z,1392
2016-10-20T10:17:11.135Z,1260
2016-10-20T10:17:51.670Z,1152
2016-10-20T10:18:32.164Z,1232
2016-10-20T10:19:12.993Z,1424
2016-10-20T10:19:53.466Z,1452
2016-10-20T10:20:34.049Z,1484
2016-10-20T10:21:14.477Z,1652
2016-10-20T10:21:55.019Z,1892
2016-10-20T10:22:35.557Z,2060
2016-10-20T10:23:16.419Z,2128
2016-10-20T10:23:57.011Z,2052
2016-10-20T10:24:37.525Z,2148
2016-10-20T10:25:18.134Z,2332
2016-10-20T10:25:58.716Z,2496
2016-10-20T10:26:39.274Z,2564
2016-10-20T10:27:19.872Z,2580
2016-10-20T10:28:00.493Z,2532
2016-10-20T10:28:41.111Z,2416
2016-10-20T10:29:21.737Z,2320
2016-10-20T10:30:02.648Z,2248
2016-10-20T10:30:45.946Z,2396
2016-10-20T10:31:26.964Z,2612
2016-10-20T10:32:06.965Z,2732
2016-10-20T10:32:47.489Z,2736
2016-10-20T10:33:28.056Z,2696
2016-10-20T10:34:09.280Z,2516
2016-10-20T10:34:49.967Z,2256
2016-10-20T10:35:32.423Z,1908
2016-10-20T10:36:15.323Z,1540
2016-10-20T10:36:58.192Z,1372
2016-10-20T10:40:27.907Z,2084
2016-10-20T10:41:08.993Z,2060
2016-10-20T10:41:51.517Z,1936
2016-10-20T10:42:32.203Z,1876
2016-10-20T10:43:12.800Z,1724
2016-10-20T10:43:53.370Z,1736
2016-10-20T10:44:33.899Z,1956
2016-10-20T10:45:15.430Z,2224
2016-10-20T10:45:56.088Z,2588
2016-10-20T10:46:37.205Z,2592
2016-10-20T10:47:17.740Z,2600
2016-10-20T10:47:58.260Z,2616
2016-10-20T10:48:38.872Z,2692
2016-10-20T10:49:19.365Z,2572
2016-10-20T10:49:59.960Z,2040
2016-10-20T10:50:41.840Z,1724
2016-10-20T10:52:57.596Z,1856
2016-10-20T10:53:38.924Z,2212
2016-10-20T10:54:19.487Z,2484
2016-10-20T10:54:59.959Z,2860
2016-10-20T10:55:40.512Z,3024
2016-10-20T10:56:21.009Z,3032
2016-10-20T10:57:01.525Z,2976
2016-10-20T10:57:49.697Z,2804
2016-10-20T10:58:37.298Z,2756
2016-10-20T11:02:17.186Z,2620
2016-10-20T11:02:59.702Z,2468